Tufts Univ, Massachusetts
Current Conditions -  °F | °C
As of 6:54 AM on Friday 21 Nov 2014 (Local Time) from KBOS Reporting Station
Clear Clear  
Wind Chill: 19°   Ceiling: Unl
Heat Index: 28°   Visibility: 10mi
Dew Point: 12°   Wind: 10mph
Humidity: 51%   Direction: 280°W
Pressure: 30.04"   Gusts: 22mph
Location:  42.4184°N, 71.1069°W
Report Text: KBOS 211154Z 28009G19KT 10SM CLR M02/M11 A3004 RMK AO2 SLP171 T10221111 10000 21022 53025
Loading
Personal Weather Stations






























Interactive Weather Map New forecast layout! Learn more

10-Day Weather Forecast

Advertisements
Track Severe Weather on mobile